Aérodrome :
LOGIN :

S'inscrire | Disclaimer

   EN    FR    IT 

 










Légende :    VFR   VFR Marginal   IFR   IFR Intensif   IFR Très Intensif
Visi : 
Plafond : 
>= 8 km
>= 3000ft
5 à 8 km
1000 à 3000 ft
1500m à 5 km
500 à 1000 ft
800 à 1500m
200 à 500 ft
< 800m
< 200 ft
Symboles :   Orages  Brouillard  Fortes neiges  Fortes précipitations  Vent > 20 kt
SIGMETs :   Divers  Orages  Givrage  Turbulence  Onde Orograph.  Cendres Volcan.







- Altitude de l'aérodrome : 102 ft
- Code IATA : CNG
- Voir les cartes d'approche


LFBG - Cognac

DERNIER METAR :
  • 210430Z AUTO 27012KT 5000 -DZ BR OVC005 12/11 Q1019

METARs EXPIRÉS :
  • 210400Z AUTO 27012KT 6000 -RADZ BKN007 OVC012 12/11 Q1019
  • 210330Z AUTO 27011KT 9000 -DZ BKN006 OVC010 12/11 Q1019
  • 210300Z AUTO 28011KT 7000 -DZ BKN005 OVC009 12/11 Q1019
  • 210230Z AUTO 28010KT 6000 -RA OVC005 12/11 Q1019
  • 210200Z AUTO 28010KT 4700 -DZ BR BKN005 OVC009 12/11 Q1019

Prévision TAF périmée.
Pas de NOTAMs connus pour ce terrain.
1 SIGMET publié pour la FIR Bordeaux (LFBB) :
 
Onde orographique forte
LFBB SIGMET 1 VALID 210300/210700 LFPW
LFBB BORDEAUX FIR/UIR SEV MTW FCST WI N4245 E00230 - N4215 E00230 - N4245 E00000 - N4300 E00000 - N4245 E00230 SFC/FL350 STNR NC=



MET'MAP, la Météo Aéronautique d'un coup d'oeil ! - Copyright ORBIFLY Décembre 2007 - Disclaimer

ORBIFLY MET'MAP TEAM :

Programmation & Développement : Alexandra Zaïnal
Conception & Développement : Baudouin d'Aumeries
Co-Programmation & Développement : Marc-Olivier Méhu
Soutien technique & logistique : Manuel Goepfert

Contact : metmap@orbifly.com




SOURCES & CREDITS :

   NOAA